Terminal Aerodrome Forecast
Issued by NWS

Home | Current Version | Previous Version | Text Only | Print | Product List | Glossary On
Versions: 1 2 3 4 5 6 7 8 9 10 11 12 13 14 15 16
843
FTPA31 PHFO 071139
TAFHJR
TAF
PHJR 071139Z 0712/0812 03012G20KT P6SM SCT022 SCT045
     FM072000 35018G25KT P6SM FEW030 SCT050
     FM080600 02012G20KT P6SM SCT030 SCT050=

USA.gov is the U.S. government's official web portal to all federal, state and local government web resources and services.